sensor_id;sensor_type;location;lat;lon;timestamp;temperature;humidity
4052;DHT22;2040;50.924;11.604;2023-05-27T00:00:03;8.60;99.90
4052;DHT22;2040;50.924;11.604;2023-05-27T00:02:29;8.70;99.90
4052;DHT22;2040;50.924;11.604;2023-05-27T00:04:54;8.60;99.90
4052;DHT22;2040;50.924;11.604;2023-05-27T00:07:20;8.60;99.90
4052;DHT22;2040;50.924;11.604;2023-05-27T00:09:45;8.60;99.90
4052;DHT22;2040;50.924;11.604;2023-05-27T00:12:11;8.60;99.90
4052;DHT22;2040;50.924;11.604;2023-05-27T00:14:36;8.60;99.90
4052;DHT22;2040;50.924;11.604;2023-05-27T00:17:02;8.60;99.90
4052;DHT22;2040;50.924;11.604;2023-05-27T00:19:29;8.60;99.90
4052;DHT22;2040;50.924;11.604;2023-05-27T00:21:56;8.50;99.90
4052;DHT22;2040;50.924;11.604;2023-05-27T00:24:22;8.40;99.90
4052;DHT22;2040;50.924;11.604;2023-05-27T00:26:48;8.30;99.90
4052;DHT22;2040;50.924;11.604;2023-05-27T00:29:16;8.30;99.90
4052;DHT22;2040;50.924;11.604;2023-05-27T00:31:42;8.30;99.90
4052;DHT22;2040;50.924;11.604;2023-05-27T00:34:08;8.60;99.90
4052;DHT22;2040;50.924;11.604;2023-05-27T00:36:33;8.60;99.90
4052;DHT22;2040;50.924;11.604;2023-05-27T00:39:00;8.50;99.90
4052;DHT22;2040;50.924;11.604;2023-05-27T00:41:25;8.50;99.90
4052;DHT22;2040;50.924;11.604;2023-05-27T00:43:51;8.80;99.90
4052;DHT22;2040;50.924;11.604;2023-05-27T00:46:18;8.70;99.90
4052;DHT22;2040;50.924;11.604;2023-05-27T00:48:45;8.40;99.90
4052;DHT22;2040;50.924;11.604;2023-05-27T00:51:10;8.30;99.90
4052;DHT22;2040;50.924;11.604;2023-05-27T00:53:40;8.40;99.90
4052;DHT22;2040;50.924;11.604;2023-05-27T00:56:07;8.20;99.90
4052;DHT22;2040;50.924;11.604;2023-05-27T00:58:34;7.90;99.90
4052;DHT22;2040;50.924;11.604;2023-05-27T01:01:01;7.80;99.90
4052;DHT22;2040;50.924;11.604;2023-05-27T01:03:26;7.60;99.90
4052;DHT22;2040;50.924;11.604;2023-05-27T01:05:59;7.50;99.90
4052;DHT22;2040;50.924;11.604;2023-05-27T01:08:35;7.50;99.90
4052;DHT22;2040;50.924;11.604;2023-05-27T01:11:03;7.40;99.90
4052;DHT22;2040;50.924;11.604;2023-05-27T01:13:42;7.40;99.90
4052;DHT22;2040;50.924;11.604;2023-05-27T01:16:16;7.30;99.90
4052;DHT22;2040;50.924;11.604;2023-05-27T01:18:44;7.30;99.90
4052;DHT22;2040;50.924;11.604;2023-05-27T01:21:12;7.30;99.90
4052;DHT22;2040;50.924;11.604;2023-05-27T01:23:41;7.40;99.90
4052;DHT22;2040;50.924;11.604;2023-05-27T01:26:07;7.40;99.90
4052;DHT22;2040;50.924;11.604;2023-05-27T01:28:32;7.60;99.90
4052;DHT22;2040;50.924;11.604;2023-05-27T01:31:12;7.70;99.90
4052;DHT22;2040;50.924;11.604;2023-05-27T01:33:40;7.70;99.90
4052;DHT22;2040;50.924;11.604;2023-05-27T01:36:16;7.60;99.90
4052;DHT22;2040;50.924;11.604;2023-05-27T01:38:43;7.50;99.90
4052;DHT22;2040;50.924;11.604;2023-05-27T01:41:12;7.40;99.90
4052;DHT22;2040;50.924;11.604;2023-05-27T01:43:39;7.30;99.90
4052;DHT22;2040;50.924;11.604;2023-05-27T01:46:05;7.30;99.90
4052;DHT22;2040;50.924;11.604;2023-05-27T01:48:30;7.30;99.90
4052;DHT22;2040;50.924;11.604;2023-05-27T01:50:56;7.30;99.90
4052;DHT22;2040;50.924;11.604;2023-05-27T01:53:22;7.20;99.90
4052;DHT22;2040;50.924;11.604;2023-05-27T01:55:47;7.40;99.90
4052;DHT22;2040;50.924;11.604;2023-05-27T01:58:13;7.40;99.90
4052;DHT22;2040;50.924;11.604;2023-05-27T02:00:39;7.30;99.90
4052;DHT22;2040;50.924;11.604;2023-05-27T02:03:05;7.20;99.90
4052;DHT22;2040;50.924;11.604;2023-05-27T02:05:30;7.20;99.90
4052;DHT22;2040;50.924;11.604;2023-05-27T02:07:56;7.10;99.90
4052;DHT22;2040;50.924;11.604;2023-05-27T02:10:21;7.00;99.90
4052;DHT22;2040;50.924;11.604;2023-05-27T02:12:47;7.00;99.90
4052;DHT22;2040;50.924;11.604;2023-05-27T02:15:15;7.00;99.90
4052;DHT22;2040;50.924;11.604;2023-05-27T02:17:41;6.90;99.90
4052;DHT22;2040;50.924;11.604;2023-05-27T02:20:10;7.00;99.90
4052;DHT22;2040;50.924;11.604;2023-05-27T02:22:36;7.00;99.90
4052;DHT22;2040;50.924;11.604;2023-05-27T02:25:02;7.00;99.90
4052;DHT22;2040;50.924;11.604;2023-05-27T02:27:27;6.90;99.90
4052;DHT22;2040;50.924;11.604;2023-05-27T02:29:53;7.00;99.90
4052;DHT22;2040;50.924;11.604;2023-05-27T02:32:18;7.00;99.90
4052;DHT22;2040;50.924;11.604;2023-05-27T02:34:44;7.00;99.90
4052;DHT22;2040;50.924;11.604;2023-05-27T02:37:10;7.10;99.90
4052;DHT22;2040;50.924;11.604;2023-05-27T02:39:35;7.30;99.90
4052;DHT22;2040;50.924;11.604;2023-05-27T02:42:01;7.30;99.90
4052;DHT22;2040;50.924;11.604;2023-05-27T02:44:26;7.50;99.90
4052;DHT22;2040;50.924;11.604;2023-05-27T02:46:52;7.30;99.90
4052;DHT22;2040;50.924;11.604;2023-05-27T02:49:17;7.10;99.90
4052;DHT22;2040;50.924;11.604;2023-05-27T02:51:43;7.00;99.90
4052;DHT22;2040;50.924;11.604;2023-05-27T02:54:09;6.90;99.90
4052;DHT22;2040;50.924;11.604;2023-05-27T02:56:34;7.00;99.90
4052;DHT22;2040;50.924;11.604;2023-05-27T02:59:00;7.00;99.90
4052;DHT22;2040;50.924;11.604;2023-05-27T03:01:25;6.90;99.90
4052;DHT22;2040;50.924;11.604;2023-05-27T03:03:51;7.10;99.90
4052;DHT22;2040;50.924;11.604;2023-05-27T03:06:17;7.00;99.90
4052;DHT22;2040;50.924;11.604;2023-05-27T03:08:42;6.80;99.90
4052;DHT22;2040;50.924;11.604;2023-05-27T03:11:08;6.70;99.90
4052;DHT22;2040;50.924;11.604;2023-05-27T03:13:33;6.60;99.90
4052;DHT22;2040;50.924;11.604;2023-05-27T03:15:59;6.50;99.90
4052;DHT22;2040;50.924;11.604;2023-05-27T03:18:25;6.40;99.90
4052;DHT22;2040;50.924;11.604;2023-05-27T03:20:51;6.30;99.90
4052;DHT22;2040;50.924;11.604;2023-05-27T03:23:16;6.30;99.90
4052;DHT22;2040;50.924;11.604;2023-05-27T03:25:42;6.30;99.90
4052;DHT22;2040;50.924;11.604;2023-05-27T03:28:07;6.30;99.90
4052;DHT22;2040;50.924;11.604;2023-05-27T03:30:33;6.40;99.90
4052;DHT22;2040;50.924;11.604;2023-05-27T03:32:59;6.30;99.90
4052;DHT22;2040;50.924;11.604;2023-05-27T03:35:24;6.30;99.90
4052;DHT22;2040;50.924;11.604;2023-05-27T03:37:50;6.30;99.90
4052;DHT22;2040;50.924;11.604;2023-05-27T03:40:15;6.40;99.90
4052;DHT22;2040;50.924;11.604;2023-05-27T03:42:41;6.60;99.90
4052;DHT22;2040;50.924;11.604;2023-05-27T03:45:07;6.60;99.90
4052;DHT22;2040;50.924;11.604;2023-05-27T03:47:32;6.50;99.90
4052;DHT22;2040;50.924;11.604;2023-05-27T03:50:00;6.50;99.90
4052;DHT22;2040;50.924;11.604;2023-05-27T03:52:26;6.40;99.90
4052;DHT22;2040;50.924;11.604;2023-05-27T03:54:51;6.40;99.90
4052;DHT22;2040;50.924;11.604;2023-05-27T03:57:17;6.30;99.90
4052;DHT22;2040;50.924;11.604;2023-05-27T03:59:42;6.30;99.90
4052;DHT22;2040;50.924;11.604;2023-05-27T04:02:08;6.50;99.90
4052;DHT22;2040;50.924;11.604;2023-05-27T04:04:33;6.60;99.90
4052;DHT22;2040;50.924;11.604;2023-05-27T04:06:59;6.80;99.90
4052;DHT22;2040;50.924;11.604;2023-05-27T04:09:26;6.70;99.90
4052;DHT22;2040;50.924;11.604;2023-05-27T04:11:52;6.90;99.90
4052;DHT22;2040;50.924;11.604;2023-05-27T04:14:17;6.90;99.90
4052;DHT22;2040;50.924;11.604;2023-05-27T04:16:43;6.90;99.90
4052;DHT22;2040;50.924;11.604;2023-05-27T04:19:09;7.00;99.90
4052;DHT22;2040;50.924;11.604;2023-05-27T04:21:35;7.10;99.90
4052;DHT22;2040;50.924;11.604;2023-05-27T04:24:02;6.90;99.90
4052;DHT22;2040;50.924;11.604;2023-05-27T04:26:28;6.70;99.90
4052;DHT22;2040;50.924;11.604;2023-05-27T04:28:53;6.70;99.90
4052;DHT22;2040;50.924;11.604;2023-05-27T04:31:19;6.80;99.90
4052;DHT22;2040;50.924;11.604;2023-05-27T04:33:45;6.70;99.90
4052;DHT22;2040;50.924;11.604;2023-05-27T04:36:11;6.70;99.90
4052;DHT22;2040;50.924;11.604;2023-05-27T04:38:37;6.70;99.90
4052;DHT22;2040;50.924;11.604;2023-05-27T04:41:03;6.60;99.90
4052;DHT22;2040;50.924;11.604;2023-05-27T04:43:29;6.60;99.90
4052;DHT22;2040;50.924;11.604;2023-05-27T04:45:57;6.80;99.90
4052;DHT22;2040;50.924;11.604;2023-05-27T04:48:24;6.80;99.90
4052;DHT22;2040;50.924;11.604;2023-05-27T04:50:50;6.80;99.90
4052;DHT22;2040;50.924;11.604;2023-05-27T04:53:18;6.90;99.90
4052;DHT22;2040;50.924;11.604;2023-05-27T04:55:44;6.90;99.90
4052;DHT22;2040;50.924;11.604;2023-05-27T04:58:10;6.80;99.90
4052;DHT22;2040;50.924;11.604;2023-05-27T05:00:36;6.80;99.90
4052;DHT22;2040;50.924;11.604;2023-05-27T05:03:07;6.90;99.90
4052;DHT22;2040;50.924;11.604;2023-05-27T05:05:34;6.90;99.90
4052;DHT22;2040;50.924;11.604;2023-05-27T05:07:59;6.90;99.90
4052;DHT22;2040;50.924;11.604;2023-05-27T05:10:25;6.90;99.90
4052;DHT22;2040;50.924;11.604;2023-05-27T05:12:51;6.90;99.90
4052;DHT22;2040;50.924;11.604;2023-05-27T05:15:17;6.90;99.90
4052;DHT22;2040;50.924;11.604;2023-05-27T05:17:43;7.00;99.90
4052;DHT22;2040;50.924;11.604;2023-05-27T05:20:09;7.20;99.90
4052;DHT22;2040;50.924;11.604;2023-05-27T05:22:35;7.20;99.90
4052;DHT22;2040;50.924;11.604;2023-05-27T05:25:01;7.40;99.90
4052;DHT22;2040;50.924;11.604;2023-05-27T05:27:27;7.50;99.90
4052;DHT22;2040;50.924;11.604;2023-05-27T05:29:53;7.70;99.90
4052;DHT22;2040;50.924;11.604;2023-05-27T05:32:19;7.80;99.90
4052;DHT22;2040;50.924;11.604;2023-05-27T05:34:44;7.80;99.90
4052;DHT22;2040;50.924;11.604;2023-05-27T05:37:10;7.90;99.90
4052;DHT22;2040;50.924;11.604;2023-05-27T05:39:36;8.10;99.90
4052;DHT22;2040;50.924;11.604;2023-05-27T05:42:02;8.20;99.90
4052;DHT22;2040;50.924;11.604;2023-05-27T05:44:29;8.20;99.90
4052;DHT22;2040;50.924;11.604;2023-05-27T05:46:54;8.40;99.90
4052;DHT22;2040;50.924;11.604;2023-05-27T05:49:20;8.50;99.90
4052;DHT22;2040;50.924;11.604;2023-05-27T05:51:46;8.60;99.90
4052;DHT22;2040;50.924;11.604;2023-05-27T05:54:11;8.70;99.90
4052;DHT22;2040;50.924;11.604;2023-05-27T05:56:37;8.80;99.90
4052;DHT22;2040;50.924;11.604;2023-05-27T05:59:02;8.80;99.90
4052;DHT22;2040;50.924;11.604;2023-05-27T06:01:28;8.90;99.90
4052;DHT22;2040;50.924;11.604;2023-05-27T06:03:54;9.00;99.90
4052;DHT22;2040;50.924;11.604;2023-05-27T06:06:20;9.20;99.90
4052;DHT22;2040;50.924;11.604;2023-05-27T06:08:46;9.30;99.90
4052;DHT22;2040;50.924;11.604;2023-05-27T06:11:11;9.40;99.90
4052;DHT22;2040;50.924;11.604;2023-05-27T06:13:38;9.40;99.90
4052;DHT22;2040;50.924;11.604;2023-05-27T06:16:04;9.60;99.90
4052;DHT22;2040;50.924;11.604;2023-05-27T06:18:29;9.70;99.90
4052;DHT22;2040;50.924;11.604;2023-05-27T06:20:55;9.80;99.90
4052;DHT22;2040;50.924;11.604;2023-05-27T06:23:20;9.90;99.90
4052;DHT22;2040;50.924;11.604;2023-05-27T06:25:46;10.00;99.90
4052;DHT22;2040;50.924;11.604;2023-05-27T06:28:12;10.20;99.90
4052;DHT22;2040;50.924;11.604;2023-05-27T06:30:38;10.40;99.90
4052;DHT22;2040;50.924;11.604;2023-05-27T06:33:04;10.50;99.90
4052;DHT22;2040;50.924;11.604;2023-05-27T06:35:30;10.60;99.90
4052;DHT22;2040;50.924;11.604;2023-05-27T06:37:58;10.60;99.90
4052;DHT22;2040;50.924;11.604;2023-05-27T06:40:23;10.70;99.90
4052;DHT22;2040;50.924;11.604;2023-05-27T06:42:49;10.70;99.90
4052;DHT22;2040;50.924;11.604;2023-05-27T06:45:15;10.90;99.90
4052;DHT22;2040;50.924;11.604;2023-05-27T06:47:40;11.00;99.90
4052;DHT22;2040;50.924;11.604;2023-05-27T06:50:06;11.10;99.90
4052;DHT22;2040;50.924;11.604;2023-05-27T06:52:32;11.10;99.90
4052;DHT22;2040;50.924;11.604;2023-05-27T06:54:57;11.20;99.90
4052;DHT22;2040;50.924;11.604;2023-05-27T06:57:23;11.40;99.90
4052;DHT22;2040;50.924;11.604;2023-05-27T06:59:48;11.60;99.90
4052;DHT22;2040;50.924;11.604;2023-05-27T07:02:14;11.60;99.90
4052;DHT22;2040;50.924;11.604;2023-05-27T07:04:40;11.80;99.90
4052;DHT22;2040;50.924;11.604;2023-05-27T07:07:05;11.80;99.90
4052;DHT22;2040;50.924;11.604;2023-05-27T07:09:31;11.80;99.90
4052;DHT22;2040;50.924;11.604;2023-05-27T07:11:56;12.00;99.90
4052;DHT22;2040;50.924;11.604;2023-05-27T07:14:22;12.20;99.90
4052;DHT22;2040;50.924;11.604;2023-05-27T07:16:47;12.30;99.90
4052;DHT22;2040;50.924;11.604;2023-05-27T07:19:13;12.50;99.90
4052;DHT22;2040;50.924;11.604;2023-05-27T07:21:38;12.60;99.90
4052;DHT22;2040;50.924;11.604;2023-05-27T07:24:04;12.70;99.90
4052;DHT22;2040;50.924;11.604;2023-05-27T07:26:30;12.80;99.90
4052;DHT22;2040;50.924;11.604;2023-05-27T07:28:58;12.90;99.90
4052;DHT22;2040;50.924;11.604;2023-05-27T07:31:24;13.20;99.90
4052;DHT22;2040;50.924;11.604;2023-05-27T07:33:50;13.20;99.90
4052;DHT22;2040;50.924;11.604;2023-05-27T07:36:15;13.30;99.90
4052;DHT22;2040;50.924;11.604;2023-05-27T07:38:41;13.30;99.90
4052;DHT22;2040;50.924;11.604;2023-05-27T07:41:07;13.50;99.90
4052;DHT22;2040;50.924;11.604;2023-05-27T07:43:32;13.60;99.90
4052;DHT22;2040;50.924;11.604;2023-05-27T07:45:58;13.80;99.90
4052;DHT22;2040;50.924;11.604;2023-05-27T07:48:23;13.70;99.90
4052;DHT22;2040;50.924;11.604;2023-05-27T07:50:49;13.80;99.90
4052;DHT22;2040;50.924;11.604;2023-05-27T07:53:14;13.90;99.90
4052;DHT22;2040;50.924;11.604;2023-05-27T07:55:40;14.10;99.90
4052;DHT22;2040;50.924;11.604;2023-05-27T07:58:05;14.10;99.90
4052;DHT22;2040;50.924;11.604;2023-05-27T08:00:31;14.30;99.90
4052;DHT22;2040;50.924;11.604;2023-05-27T08:02:57;14.40;99.90
4052;DHT22;2040;50.924;11.604;2023-05-27T08:05:23;14.60;99.90
4052;DHT22;2040;50.924;11.604;2023-05-27T08:07:48;14.70;99.90
4052;DHT22;2040;50.924;11.604;2023-05-27T08:10:14;14.80;99.90
4052;DHT22;2040;50.924;11.604;2023-05-27T08:12:40;14.70;99.90
4052;DHT22;2040;50.924;11.604;2023-05-27T08:15:06;14.80;99.90
4052;DHT22;2040;50.924;11.604;2023-05-27T08:17:31;14.70;99.90
4052;DHT22;2040;50.924;11.604;2023-05-27T08:19:57;15.00;99.90
4052;DHT22;2040;50.924;11.604;2023-05-27T08:22:22;14.90;99.90
4052;DHT22;2040;50.924;11.604;2023-05-27T08:24:48;15.00;99.90
4052;DHT22;2040;50.924;11.604;2023-05-27T08:27:15;15.20;99.90
4052;DHT22;2040;50.924;11.604;2023-05-27T08:29:42;15.30;99.90
4052;DHT22;2040;50.924;11.604;2023-05-27T08:32:07;15.30;99.90
4052;DHT22;2040;50.924;11.604;2023-05-27T08:34:33;15.30;99.90
4052;DHT22;2040;50.924;11.604;2023-05-27T08:36:58;15.30;99.90
4052;DHT22;2040;50.924;11.604;2023-05-27T08:39:25;15.30;99.90
4052;DHT22;2040;50.924;11.604;2023-05-27T08:41:52;15.40;99.90
4052;DHT22;2040;50.924;11.604;2023-05-27T08:44:24;15.50;99.90
4052;DHT22;2040;50.924;11.604;2023-05-27T08:46:55;15.70;99.90
4052;DHT22;2040;50.924;11.604;2023-05-27T08:49:21;15.80;99.90
4052;DHT22;2040;50.924;11.604;2023-05-27T08:51:47;16.00;99.90
4052;DHT22;2040;50.924;11.604;2023-05-27T08:54:14;16.20;99.90
4052;DHT22;2040;50.924;11.604;2023-05-27T08:56:43;16.00;99.90
4052;DHT22;2040;50.924;11.604;2023-05-27T08:59:09;16.00;99.90
4052;DHT22;2040;50.924;11.604;2023-05-27T09:01:35;16.10;99.90
4052;DHT22;2040;50.924;11.604;2023-05-27T09:04:01;16.20;99.90
4052;DHT22;2040;50.924;11.604;2023-05-27T09:06:26;16.40;99.90
4052;DHT22;2040;50.924;11.604;2023-05-27T09:08:52;16.40;99.90
4052;DHT22;2040;50.924;11.604;2023-05-27T09:11:26;16.60;99.90
4052;DHT22;2040;50.924;11.604;2023-05-27T09:13:54;16.60;99.90
4052;DHT22;2040;50.924;11.604;2023-05-27T09:16:21;16.80;99.90
4052;DHT22;2040;50.924;11.604;2023-05-27T09:18:48;17.00;99.90
4052;DHT22;2040;50.924;11.604;2023-05-27T09:21:14;17.10;99.90
4052;DHT22;2040;50.924;11.604;2023-05-27T09:23:40;17.20;99.90
4052;DHT22;2040;50.924;11.604;2023-05-27T09:26:09;17.00;99.90
4052;DHT22;2040;50.924;11.604;2023-05-27T09:28:36;17.00;99.90
4052;DHT22;2040;50.924;11.604;2023-05-27T09:31:06;17.20;99.90
4052;DHT22;2040;50.924;11.604;2023-05-27T09:33:37;17.40;99.90
4052;DHT22;2040;50.924;11.604;2023-05-27T09:36:05;17.60;99.90
4052;DHT22;2040;50.924;11.604;2023-05-27T09:38:32;17.60;99.90
4052;DHT22;2040;50.924;11.604;2023-05-27T09:40:58;17.60;99.90
4052;DHT22;2040;50.924;11.604;2023-05-27T09:43:25;17.30;99.90
4052;DHT22;2040;50.924;11.604;2023-05-27T09:46:03;17.40;99.90
4052;DHT22;2040;50.924;11.604;2023-05-27T09:48:30;17.40;99.90
4052;DHT22;2040;50.924;11.604;2023-05-27T09:50:57;17.50;99.90
4052;DHT22;2040;50.924;11.604;2023-05-27T09:53:24;17.60;99.90
4052;DHT22;2040;50.924;11.604;2023-05-27T09:55:55;17.60;99.90
4052;DHT22;2040;50.924;11.604;2023-05-27T09:58:21;17.80;99.90
4052;DHT22;2040;50.924;11.604;2023-05-27T10:00:48;18.00;99.90
4052;DHT22;2040;50.924;11.604;2023-05-27T10:03:16;18.30;99.90
4052;DHT22;2040;50.924;11.604;2023-05-27T10:05:44;18.50;99.90
4052;DHT22;2040;50.924;11.604;2023-05-27T10:08:11;18.80;99.90
4052;DHT22;2040;50.924;11.604;2023-05-27T10:10:38;19.10;99.90
4052;DHT22;2040;50.924;11.604;2023-05-27T10:13:04;19.30;99.90
4052;DHT22;2040;50.924;11.604;2023-05-27T10:15:31;19.20;99.90
4052;DHT22;2040;50.924;11.604;2023-05-27T10:17:59;18.90;99.90
4052;DHT22;2040;50.924;11.604;2023-05-27T10:22:56;18.60;99.90
4052;DHT22;2040;50.924;11.604;2023-05-27T10:25:25;18.90;99.90
4052;DHT22;2040;50.924;11.604;2023-05-27T10:28:00;19.00;99.90
4052;DHT22;2040;50.924;11.604;2023-05-27T10:30:26;19.00;99.90
4052;DHT22;2040;50.924;11.604;2023-05-27T10:32:53;18.80;99.90
4052;DHT22;2040;50.924;11.604;2023-05-27T10:35:20;18.70;99.90
4052;DHT22;2040;50.924;11.604;2023-05-27T10:37:46;18.80;99.90
4052;DHT22;2040;50.924;11.604;2023-05-27T10:40:12;19.10;99.90
4052;DHT22;2040;50.924;11.604;2023-05-27T10:42:58;18.80;99.90
4052;DHT22;2040;50.924;11.604;2023-05-27T10:45:31;19.00;99.90
4052;DHT22;2040;50.924;11.604;2023-05-27T10:47:57;18.90;99.90
4052;DHT22;2040;50.924;11.604;2023-05-27T10:50:30;19.00;99.90
4052;DHT22;2040;50.924;11.604;2023-05-27T10:52:59;19.30;99.90
4052;DHT22;2040;50.924;11.604;2023-05-27T10:55:25;19.60;99.90
4052;DHT22;2040;50.924;11.604;2023-05-27T10:57:51;19.60;99.90
4052;DHT22;2040;50.924;11.604;2023-05-27T11:00:18;19.90;99.90
4052;DHT22;2040;50.924;11.604;2023-05-27T11:02:46;19.90;99.90
4052;DHT22;2040;50.924;11.604;2023-05-27T11:05:14;19.80;99.90
4052;DHT22;2040;50.924;11.604;2023-05-27T11:07:40;20.00;99.90
4052;DHT22;2040;50.924;11.604;2023-05-27T11:10:07;19.90;99.90
4052;DHT22;2040;50.924;11.604;2023-05-27T11:12:33;20.10;99.90
4052;DHT22;2040;50.924;11.604;2023-05-27T11:14:59;20.50;99.90
4052;DHT22;2040;50.924;11.604;2023-05-27T11:17:24;20.10;99.90
4052;DHT22;2040;50.924;11.604;2023-05-27T11:19:51;20.10;99.90
4052;DHT22;2040;50.924;11.604;2023-05-27T11:22:18;20.10;99.90
4052;DHT22;2040;50.924;11.604;2023-05-27T11:25:02;20.50;99.90
4052;DHT22;2040;50.924;11.604;2023-05-27T11:27:35;21.00;99.90
4052;DHT22;2040;50.924;11.604;2023-05-27T11:30:06;20.80;99.90
4052;DHT22;2040;50.924;11.604;2023-05-27T11:32:34;20.70;99.90
4052;DHT22;2040;50.924;11.604;2023-05-27T11:35:00;20.90;99.90
4052;DHT22;2040;50.924;11.604;2023-05-27T11:37:34;20.80;99.90
4052;DHT22;2040;50.924;11.604;2023-05-27T11:40:00;20.70;99.90
4052;DHT22;2040;50.924;11.604;2023-05-27T11:42:28;20.80;99.90
4052;DHT22;2040;50.924;11.604;2023-05-27T11:44:54;21.00;99.90
4052;DHT22;2040;50.924;11.604;2023-05-27T11:47:20;21.10;99.90
4052;DHT22;2040;50.924;11.604;2023-05-27T11:49:49;21.10;99.90
4052;DHT22;2040;50.924;11.604;2023-05-27T11:52:15;21.40;99.90
4052;DHT22;2040;50.924;11.604;2023-05-27T11:54:41;21.40;99.90
4052;DHT22;2040;50.924;11.604;2023-05-27T11:57:06;21.60;99.90
4052;DHT22;2040;50.924;11.604;2023-05-27T11:59:34;21.90;99.90
4052;DHT22;2040;50.924;11.604;2023-05-27T12:02:02;22.30;99.90
4052;DHT22;2040;50.924;11.604;2023-05-27T12:04:29;22.60;99.90
4052;DHT22;2040;50.924;11.604;2023-05-27T12:06:55;22.50;99.90
4052;DHT22;2040;50.924;11.604;2023-05-27T12:09:22;22.00;99.90
4052;DHT22;2040;50.924;11.604;2023-05-27T12:11:47;22.40;99.90
4052;DHT22;2040;50.924;11.604;2023-05-27T12:14:13;22.00;99.90
4052;DHT22;2040;50.924;11.604;2023-05-27T12:16:38;21.50;99.90
4052;DHT22;2040;50.924;11.604;2023-05-27T12:19:04;21.70;99.90
4052;DHT22;2040;50.924;11.604;2023-05-27T12:21:30;22.00;99.90
4052;DHT22;2040;50.924;11.604;2023-05-27T12:23:55;22.10;99.90
4052;DHT22;2040;50.924;11.604;2023-05-27T12:26:21;22.00;99.90
4052;DHT22;2040;50.924;11.604;2023-05-27T12:28:47;21.90;99.90
4052;DHT22;2040;50.924;11.604;2023-05-27T12:31:13;22.00;99.90
4052;DHT22;2040;50.924;11.604;2023-05-27T12:33:38;22.30;99.90
4052;DHT22;2040;50.924;11.604;2023-05-27T12:36:04;22.10;99.90
4052;DHT22;2040;50.924;11.604;2023-05-27T12:38:32;22.30;99.90
4052;DHT22;2040;50.924;11.604;2023-05-27T12:40:58;22.80;99.90
4052;DHT22;2040;50.924;11.604;2023-05-27T12:43:24;23.10;99.90
4052;DHT22;2040;50.924;11.604;2023-05-27T12:45:50;23.00;99.90
4052;DHT22;2040;50.924;11.604;2023-05-27T12:48:16;23.00;99.90
4052;DHT22;2040;50.924;11.604;2023-05-27T12:50:43;23.10;99.90
4052;DHT22;2040;50.924;11.604;2023-05-27T12:53:09;22.30;99.90
4052;DHT22;2040;50.924;11.604;2023-05-27T12:55:35;21.90;99.90
4052;DHT22;2040;50.924;11.604;2023-05-27T12:58:02;22.10;99.90
4052;DHT22;2040;50.924;11.604;2023-05-27T13:00:27;21.60;99.90
4052;DHT22;2040;50.924;11.604;2023-05-27T13:02:53;22.10;99.90
4052;DHT22;2040;50.924;11.604;2023-05-27T13:05:19;22.40;99.90
4052;DHT22;2040;50.924;11.604;2023-05-27T13:07:59;22.10;99.90
4052;DHT22;2040;50.924;11.604;2023-05-27T13:10:25;22.00;99.90
4052;DHT22;2040;50.924;11.604;2023-05-27T13:12:51;21.90;99.90
4052;DHT22;2040;50.924;11.604;2023-05-27T13:15:17;21.80;99.90
4052;DHT22;2040;50.924;11.604;2023-05-27T13:17:44;21.70;99.90
4052;DHT22;2040;50.924;11.604;2023-05-27T13:20:11;21.90;99.90
4052;DHT22;2040;50.924;11.604;2023-05-27T13:22:36;22.00;99.90
4052;DHT22;2040;50.924;11.604;2023-05-27T13:25:03;22.40;99.90
4052;DHT22;2040;50.924;11.604;2023-05-27T13:27:28;22.60;99.90
4052;DHT22;2040;50.924;11.604;2023-05-27T13:29:54;22.50;99.90
4052;DHT22;2040;50.924;11.604;2023-05-27T13:32:19;22.40;99.90
4052;DHT22;2040;50.924;11.604;2023-05-27T13:34:45;22.60;99.90
4052;DHT22;2040;50.924;11.604;2023-05-27T13:37:11;22.20;99.90
4052;DHT22;2040;50.924;11.604;2023-05-27T13:39:36;22.40;99.90
4052;DHT22;2040;50.924;11.604;2023-05-27T13:42:08;22.40;99.90
4052;DHT22;2040;50.924;11.604;2023-05-27T13:44:34;22.60;99.90
4052;DHT22;2040;50.924;11.604;2023-05-27T13:46:59;23.20;99.90
4052;DHT22;2040;50.924;11.604;2023-05-27T13:49:25;23.20;99.10
4052;DHT22;2040;50.924;11.604;2023-05-27T13:51:51;22.80;99.90
4052;DHT22;2040;50.924;11.604;2023-05-27T13:54:16;22.60;98.80
4052;DHT22;2040;50.924;11.604;2023-05-27T13:56:42;22.40;98.20
4052;DHT22;2040;50.924;11.604;2023-05-27T13:59:09;22.10;98.60
4052;DHT22;2040;50.924;11.604;2023-05-27T14:01:37;21.90;98.70
4052;DHT22;2040;50.924;11.604;2023-05-27T14:04:03;22.00;98.50
4052;DHT22;2040;50.924;11.604;2023-05-27T14:06:29;22.30;98.50
4052;DHT22;2040;50.924;11.604;2023-05-27T14:08:55;22.50;97.10
4052;DHT22;2040;50.924;11.604;2023-05-27T14:11:20;22.40;99.90
4052;DHT22;2040;50.924;11.604;2023-05-27T14:13:48;22.40;97.90
4052;DHT22;2040;50.924;11.604;2023-05-27T14:16:14;22.10;99.30
4052;DHT22;2040;50.924;11.604;2023-05-27T14:18:39;22.10;99.90
4052;DHT22;2040;50.924;11.604;2023-05-27T14:21:05;22.30;98.90
4052;DHT22;2040;50.924;11.604;2023-05-27T14:23:31;22.70;98.00
4052;DHT22;2040;50.924;11.604;2023-05-27T14:25:57;22.60;99.70
4052;DHT22;2040;50.924;11.604;2023-05-27T14:28:22;22.90;98.80
4052;DHT22;2040;50.924;11.604;2023-05-27T14:30:48;22.60;97.00
4052;DHT22;2040;50.924;11.604;2023-05-27T14:33:13;21.90;98.20
4052;DHT22;2040;50.924;11.604;2023-05-27T14:35:39;21.90;98.80
4052;DHT22;2040;50.924;11.604;2023-05-27T14:38:06;22.10;98.90
4052;DHT22;2040;50.924;11.604;2023-05-27T14:40:32;21.90;98.10
4052;DHT22;2040;50.924;11.604;2023-05-27T14:42:58;22.00;97.00
4052;DHT22;2040;50.924;11.604;2023-05-27T14:45:24;22.10;97.80
4052;DHT22;2040;50.924;11.604;2023-05-27T14:47:50;22.30;96.80
4052;DHT22;2040;50.924;11.604;2023-05-27T14:50:17;22.00;97.40
4052;DHT22;2040;50.924;11.604;2023-05-27T14:52:42;21.90;97.90
4052;DHT22;2040;50.924;11.604;2023-05-27T14:55:08;22.20;97.80
4052;DHT22;2040;50.924;11.604;2023-05-27T14:57:34;22.20;98.70
4052;DHT22;2040;50.924;11.604;2023-05-27T15:00:01;22.40;99.90
4052;DHT22;2040;50.924;11.604;2023-05-27T15:02:26;22.70;99.50
4052;DHT22;2040;50.924;11.604;2023-05-27T15:04:52;22.70;97.90
4052;DHT22;2040;50.924;11.604;2023-05-27T15:07:17;22.30;97.30
4052;DHT22;2040;50.924;11.604;2023-05-27T15:09:44;22.40;96.90
4052;DHT22;2040;50.924;11.604;2023-05-27T15:12:10;22.40;98.10
4052;DHT22;2040;50.924;11.604;2023-05-27T15:14:36;22.50;98.30
4052;DHT22;2040;50.924;11.604;2023-05-27T15:17:01;22.30;97.00
4052;DHT22;2040;50.924;11.604;2023-05-27T15:19:27;22.20;98.80
4052;DHT22;2040;50.924;11.604;2023-05-27T15:21:53;22.30;98.80
4052;DHT22;2040;50.924;11.604;2023-05-27T15:24:18;22.10;97.00
4052;DHT22;2040;50.924;11.604;2023-05-27T15:26:44;22.20;96.80
4052;DHT22;2040;50.924;11.604;2023-05-27T15:29:10;22.20;98.00
4052;DHT22;2040;50.924;11.604;2023-05-27T15:31:36;22.20;97.20
4052;DHT22;2040;50.924;11.604;2023-05-27T15:34:02;21.90;97.60
4052;DHT22;2040;50.924;11.604;2023-05-27T15:36:27;22.00;98.40
4052;DHT22;2040;50.924;11.604;2023-05-27T15:38:53;21.80;98.50
4052;DHT22;2040;50.924;11.604;2023-05-27T15:41:19;22.10;97.80
4052;DHT22;2040;50.924;11.604;2023-05-27T15:43:44;22.20;98.80
4052;DHT22;2040;50.924;11.604;2023-05-27T15:46:10;22.30;97.10
4052;DHT22;2040;50.924;11.604;2023-05-27T15:48:35;22.10;96.20